Time,TemperatureF,DewpointF,PressureIn,WindDirection,WindDirectionDegrees,WindSpeedMPH,WindSpeedGustMPH,Humidity,HourlyPrecipIn,Conditions,Clouds,dailyrainin,SoftwareType,DateUTC
2013-08-05 00:06:00,66.8,65.0,30.04,ENE,63,0.0,1.0,95,0.00,,,0.00,weatherlink.com 1.10,2013-08-05 04:06:00,
2013-08-05 00:21:00,66.9,65.0,30.05,North,360,1.0,3.0,94,0.00,,,0.00,weatherlink.com 1.10,2013-08-05 04:21:00,
2013-08-05 00:36:00,66.6,65.0,30.05,North,360,0.0,0.0,94,0.00,,,0.00,weatherlink.com 1.10,2013-08-05 04:36:00,
2013-08-05 00:51:00,66.5,65.0,30.05,North,360,0.0,0.0,95,0.00,,,0.00,weatherlink.com 1.10,2013-08-05 04:51:00,
2013-08-05 01:06:00,66.5,65.0,30.05,North,360,0.0,0.0,95,0.00,,,0.00,weatherlink.com 1.10,2013-08-05 05:06:00,
2013-08-05 01:21:00,66.3,65.0,30.05,North,360,0.0,0.0,95,0.00,,,0.00,weatherlink.com 1.10,2013-08-05 05:21:00,
2013-08-05 01:36:00,66.2,65.0,30.05,North,360,0.0,0.0,95,0.00,,,0.00,weatherlink.com 1.10,2013-08-05 05:36:00,
2013-08-05 01:51:00,65.9,65.0,30.05,North,360,0.0,2.0,95,0.00,,,0.00,weatherlink.com 1.10,2013-08-05 05:51:00,
2013-08-05 02:06:00,65.3,64.0,30.05,North,360,0.0,2.0,95,0.00,,,0.00,weatherlink.com 1.10,2013-08-05 06:06:00,
2013-08-05 02:22:00,64.8,63.0,30.05,North,360,0.0,2.0,95,0.00,,,0.00,weatherlink.com 1.10,2013-08-05 06:22:00,
2013-08-05 02:36:00,65.0,64.0,30.05,North,360,0.0,0.0,96,0.00,,,0.00,weatherlink.com 1.10,2013-08-05 06:36:00,
2013-08-05 02:52:00,65.3,64.0,30.06,North,360,0.0,0.0,96,0.00,,,0.00,weatherlink.com 1.10,2013-08-05 06:52:00,
2013-08-05 03:07:00,65.5,64.0,30.06,North,360,0.0,0.0,96,0.00,,,0.00,weatherlink.com 1.10,2013-08-05 07:07:00,
2013-08-05 03:21:00,65.5,64.0,30.05,North,360,1.0,1.0,95,0.00,,,0.00,weatherlink.com 1.10,2013-08-05 07:21:00,
2013-08-05 03:37:00,65.2,64.0,30.05,North,360,0.0,0.0,96,0.00,,,0.00,weatherlink.com 1.10,2013-08-05 07:37:00,
2013-08-05 03:52:00,65.0,64.0,30.05,North,360,0.0,0.0,96,0.00,,,0.00,weatherlink.com 1.10,2013-08-05 07:52:00,
2013-08-05 04:06:00,64.9,64.0,30.05,North,360,0.0,0.0,96,0.00,,,0.00,weatherlink.com 1.10,2013-08-05 08:06:00,
2013-08-05 04:22:00,64.5,63.0,30.05,North,360,0.0,0.0,95,0.00,,,0.00,weatherlink.com 1.10,2013-08-05 08:22:00,
2013-08-05 04:37:00,64.0,63.0,30.05,North,360,0.0,2.0,95,0.00,,,0.00,weatherlink.com 1.10,2013-08-05 08:37:00,
2013-08-05 04:51:00,64.1,63.0,30.05,North,360,0.0,0.0,96,0.00,,,0.00,weatherlink.com 1.10,2013-08-05 08:51:00,
2013-08-05 05:07:00,64.2,63.0,30.05,North,360,0.0,0.0,96,0.00,,,0.00,weatherlink.com 1.10,2013-08-05 09:07:00,
2013-08-05 05:52:00,64.3,63.0,30.06,North,360,2.0,2.0,96,0.00,,,0.00,weatherlink.com 1.10,2013-08-05 09:52:00,
2013-08-05 06:07:00,64.1,63.0,30.05,North,360,0.0,1.0,95,0.00,,,0.00,weatherlink.com 1.10,2013-08-05 10:07:00,
2013-08-05 06:22:00,64.0,62.0,30.07,North,360,0.0,3.0,94,0.00,,,0.00,weatherlink.com 1.10,2013-08-05 10:22:00,
2013-08-05 06:37:00,63.5,62.0,30.07,North,360,0.0,1.0,95,0.00,,,0.00,weatherlink.com 1.10,2013-08-05 10:37:00,
2013-08-05 07:07:00,63.8,62.0,30.08,North,360,0.0,0.0,95,0.00,,,0.00,weatherlink.com 1.10,2013-08-05 11:07:00,
2013-08-05 07:22:00,64.8,64.0,30.09,North,360,0.0,0.0,96,0.00,,,0.00,weatherlink.com 1.10,2013-08-05 11:22:00,
2013-08-05 07:52:00,66.9,65.0,30.09,North,360,0.0,0.0,94,0.00,,,0.00,weatherlink.com 1.10,2013-08-05 11:52:00,
2013-08-05 08:07:00,68.8,65.0,30.10,North,360,0.0,2.0,87,0.00,,,0.00,weatherlink.com 1.10,2013-08-05 12:07:00,
2013-08-05 08:22:00,69.7,66.0,30.10,East,101,0.0,3.0,87,0.00,,,0.00,weatherlink.com 1.10,2013-08-05 12:22:00,
2013-08-05 08:37:00,70.8,64.0,30.10,NE,53,1.0,3.0,80,0.00,,,0.00,weatherlink.com 1.10,2013-08-05 12:37:00,
2013-08-05 08:52:00,70.9,64.0,30.11,NNE,28,0.0,5.0,80,0.00,,,0.00,weatherlink.com 1.10,2013-08-05 12:52:00,
2013-08-05 09:22:00,73.2,64.0,30.10,ENE,69,4.0,6.0,74,0.00,,,0.00,weatherlink.com 1.10,2013-08-05 13:22:00,
2013-08-05 09:37:00,73.1,62.0,30.10,NNE,18,3.0,7.0,69,0.00,,,0.00,weatherlink.com 1.10,2013-08-05 13:37:00,
2013-08-05 10:07:00,73.4,63.0,30.11,ENE,71,5.0,9.0,69,0.00,,,0.00,weatherlink.com 1.10,2013-08-05 14:07:00,
2013-08-05 10:22:00,74.3,63.0,30.11,ENE,67,5.0,8.0,68,0.00,,,0.00,weatherlink.com 1.10,2013-08-05 14:22:00,
2013-08-05 10:37:00,74.6,62.0,30.11,East,101,3.0,8.0,65,0.00,,,0.00,weatherlink.com 1.10,2013-08-05 14:37:00,
2013-08-05 10:52:00,74.0,63.0,30.12,ENE,58,4.0,7.0,68,0.00,,,0.00,weatherlink.com 1.10,2013-08-05 14:52:00,
2013-08-05 11:07:00,74.8,64.0,30.11,ESE,120,3.0,7.0,68,0.00,,,0.00,weatherlink.com 1.10,2013-08-05 15:07:00,
2013-08-05 11:23:00,75.9,65.0,30.11,NE,41,2.0,8.0,69,0.00,,,0.00,weatherlink.com 1.10,2013-08-05 15:23:00,
2013-08-05 11:38:00,76.2,64.0,30.11,ENE,58,2.0,7.0,65,0.00,,,0.00,weatherlink.com 1.10,2013-08-05 15:38:00,
2013-08-05 12:08:00,76.2,63.0,30.10,ENE,65,2.0,6.0,64,0.00,,,0.00,weatherlink.com 1.10,2013-08-05 16:08:00,
2013-08-05 12:38:00,77.2,62.0,30.09,ENE,66,3.0,6.0,60,0.00,,,0.00,weatherlink.com 1.10,2013-08-05 16:38:00,
2013-08-05 12:53:00,77.2,65.0,30.09,ENE,65,4.0,6.0,66,0.00,,,0.00,weatherlink.com 1.10,2013-08-05 16:53:00,
2013-08-05 13:22:00,78.0,64.0,30.07,East,89,2.0,7.0,63,0.00,,,0.00,weatherlink.com 1.10,2013-08-05 17:22:00,
2013-08-05 13:37:00,78.1,64.0,30.07,East,84,3.0,8.0,62,0.00,,,0.00,weatherlink.com 1.10,2013-08-05 17:37:00,
2013-08-05 14:08:00,78.2,63.0,30.06,SE,126,2.0,7.0,60,0.00,,,0.00,weatherlink.com 1.10,2013-08-05 18:08:00,
2013-08-05 14:23:00,78.9,65.0,30.06,SE,129,1.0,8.0,62,0.00,,,0.00,weatherlink.com 1.10,2013-08-05 18:23:00,
2013-08-05 14:38:00,78.2,66.0,30.05,ESE,116,2.0,6.0,66,0.00,,,0.00,weatherlink.com 1.10,2013-08-05 18:38:00,
2013-08-05 14:53:00,79.3,64.0,30.05,SE,146,3.0,7.0,60,0.00,,,0.00,weatherlink.com 1.10,2013-08-05 18:53:00,
2013-08-05 15:23:00,78.8,66.0,30.04,South,173,2.0,6.0,64,0.00,,,0.00,weatherlink.com 1.10,2013-08-05 19:23:00,
2013-08-05 15:38:00,78.5,65.0,30.04,SE,130,3.0,6.0,63,0.00,,,0.00,weatherlink.com 1.10,2013-08-05 19:38:00,
2013-08-05 16:08:00,79.8,66.0,30.03,ENE,76,2.0,8.0,63,0.00,,,0.00,weatherlink.com 1.10,2013-08-05 20:08:00,
2013-08-05 16:53:00,79.8,66.0,30.03,SSE,153,3.0,6.0,62,0.00,,,0.00,weatherlink.com 1.10,2013-08-05 20:53:00,
2013-08-05 17:08:00,79.4,67.0,30.03,SSE,167,2.0,6.0,66,0.00,,,0.00,weatherlink.com 1.10,2013-08-05 21:08:00,
2013-08-05 17:23:00,79.6,66.0,30.02,SE,132,3.0,6.0,63,0.00,,,0.00,weatherlink.com 1.10,2013-08-05 21:23:00,
2013-08-05 17:53:00,78.7,65.0,30.02,ESE,114,2.0,7.0,63,0.00,,,0.00,weatherlink.com 1.10,2013-08-05 21:53:00,
2013-08-05 18:23:00,79.0,66.0,30.02,East,101,3.0,6.0,65,0.00,,,0.00,weatherlink.com 1.10,2013-08-05 22:23:00,
2013-08-05 18:38:00,78.0,67.0,30.02,SE,145,1.0,3.0,68,0.00,,,0.00,weatherlink.com 1.10,2013-08-05 22:38:00,
2013-08-05 18:53:00,77.8,70.0,30.02,SE,145,0.0,1.0,77,0.00,,,0.00,weatherlink.com 1.10,2013-08-05 22:53:00,
2013-08-05 19:08:00,77.3,68.0,30.01,SSE,158,0.0,2.0,74,0.00,,,0.00,weatherlink.com 1.10,2013-08-05 23:08:00,
2013-08-05 19:38:00,75.5,69.0,30.02,East,91,0.0,2.0,80,0.00,,,0.00,weatherlink.com 1.10,2013-08-05 23:38:00,
2013-08-05 19:53:00,74.7,68.0,30.02,SW,217,0.0,1.0,79,0.00,,,0.00,weatherlink.com 1.10,2013-08-05 23:53:00,
2013-08-05 20:08:00,74.2,70.0,30.03,SW,217,0.0,0.0,85,0.00,,,0.00,weatherlink.com 1.10,2013-08-06 00:08:00,
2013-08-05 20:23:00,73.8,70.0,30.02,SW,217,0.0,0.0,88,0.00,,,0.00,weatherlink.com 1.10,2013-08-06 00:23:00,
2013-08-05 20:38:00,72.9,70.0,30.03,SW,217,0.0,0.0,89,0.00,,,0.00,weatherlink.com 1.10,2013-08-06 00:38:00,
2013-08-05 20:53:00,72.2,69.0,30.03,SW,217,0.0,0.0,90,0.00,,,0.00,weatherlink.com 1.10,2013-08-06 00:53:00,
2013-08-05 21:08:00,71.8,69.0,30.02,SW,217,0.0,0.0,91,0.00,,,0.00,weatherlink.com 1.10,2013-08-06 01:08:00,
2013-08-05 21:23:00,71.5,69.0,30.03,SW,217,0.0,0.0,92,0.00,,,0.00,weatherlink.com 1.10,2013-08-06 01:23:00,
2013-08-05 21:53:00,71.0,69.0,30.03,SW,217,0.0,0.0,93,0.00,,,0.00,weatherlink.com 1.10,2013-08-06 01:53:00,
2013-08-05 22:08:00,70.6,69.0,30.03,SW,217,0.0,0.0,93,0.00,,,0.00,weatherlink.com 1.10,2013-08-06 02:08:00,
2013-08-05 22:38:00,69.9,68.0,30.02,SW,217,0.0,0.0,93,0.00,,,0.00,weatherlink.com 1.10,2013-08-06 02:38:00,
2013-08-05 22:53:00,69.6,68.0,30.02,SW,217,0.0,1.0,94,0.00,,,0.00,weatherlink.com 1.10,2013-08-06 02:53:00,
2013-08-05 23:08:00,69.3,68.0,30.02,SW,217,0.0,0.0,94,0.00,,,0.00,weatherlink.com 1.10,2013-08-06 03:08:00,
2013-08-05 23:23:00,68.9,67.0,30.02,SW,217,0.0,0.0,94,0.00,,,0.00,weatherlink.com 1.10,2013-08-06 03:23:00,
2013-08-05 23:38:00,68.9,68.0,30.02,SW,217,0.0,0.0,95,0.00,,,0.00,weatherlink.com 1.10,2013-08-06 03:38:00,
2013-08-05 23:53:00,69.1,67.0,30.02,SW,217,0.0,0.0,94,0.00,,,0.00,weatherlink.com 1.10,2013-08-06 03:53:00,